Time;durP1;ratioP1;P1;durP2;ratioP2;P2;SDS_P1;SDS_P2;PMS_P1;PMS_P2;Temp;Humidity;BMP_temperature;BMP_pressure;BME280_temperature;BME280_humidity;BME280_pressure;Samples;Min_cycle;Max_cycle;Signal;HPM_P1;HPM_P2
2023/08/06 00:00:00;;;;;;;851.57;800.13;;;14.40;99.90;;;;;;4994259;28;20478;-70
2023/08/06 00:02:26;;;;;;;858.93;805.63;;;14.40;99.90;;;;;;4999746;28;20544;-71
2023/08/06 00:04:53;;;;;;;862.10;808.77;;;14.40;99.90;;;;;;5009157;28;20529;-70
2023/08/06 00:07:20;;;;;;;857.30;803.80;;;14.40;99.90;;;;;;4999701;28;20457;-71
2023/08/06 00:09:47;;;;;;;859.77;806.27;;;14.40;99.90;;;;;;5012370;28;20992;-70
2023/08/06 00:12:14;;;;;;;856.90;802.83;;;14.30;99.90;;;;;;5000439;28;20485;-70
2023/08/06 00:14:42;;;;;;;872.47;817.47;;;14.30;99.90;;;;;;5003538;28;20875;-71
2023/08/06 00:17:09;;;;;;;881.53;825.10;;;14.20;99.90;;;;;;5009458;28;20988;-71
2023/08/06 00:19:36;;;;;;;878.93;822.37;;;14.20;99.90;;;;;;5012289;28;20598;-70
2023/08/06 00:22:03;;;;;;;881.97;824.80;;;14.10;99.90;;;;;;5010352;28;20541;-70
2023/08/06 00:24:29;;;;;;;892.30;833.00;;;14.10;99.90;;;;;;5011006;28;20946;-70
2023/08/06 00:26:56;;;;;;;895.20;835.80;;;14.10;99.90;;;;;;4997287;28;20965;-70
2023/08/06 00:29:23;;;;;;;902.97;842.47;;;14.10;99.90;;;;;;5012424;28;20456;-70
2023/08/06 00:31:51;;;;;;;916.93;855.17;;;14.10;99.90;;;;;;5006252;28;20457;-70
2023/08/06 00:34:18;;;;;;;918.13;855.73;;;14.10;99.90;;;;;;4993045;28;20454;-70
2023/08/06 00:36:45;;;;;;;925.00;861.20;;;14.10;99.90;;;;;;5010643;28;20980;-70
2023/08/06 00:39:12;;;;;;;944.37;878.80;;;14.00;99.90;;;;;;4993377;28;20750;-71
2023/08/06 00:41:38;;;;;;;954.63;887.50;;;13.90;99.90;;;;;;5002464;28;20572;-71
2023/08/06 00:44:05;;;;;;;952.53;884.23;;;13.90;99.90;;;;;;5012175;28;20454;-70
2023/08/06 00:46:33;;;;;;;960.17;890.77;;;13.80;99.90;;;;;;4998198;28;20446;-70
2023/08/06 00:49:01;;;;;;;967.10;895.33;;;13.80;99.90;;;;;;5010530;28;20636;-70
2023/08/06 00:51:28;;;;;;;967.00;894.40;;;13.80;99.90;;;;;;5005221;28;20532;-70
2023/08/06 00:53:56;;;;;;;958.40;884.60;;;13.80;99.90;;;;;;5015982;28;20528;-70
2023/08/06 00:56:24;;;;;;;965.63;889.53;;;13.80;99.90;;;;;;5006186;28;20548;-70
2023/08/06 00:58:51;;;;;;;960.13;884.90;;;13.90;99.90;;;;;;5010032;28;20536;-70
2023/08/06 01:01:18;;;;;;;957.20;881.80;;;14.00;99.90;;;;;;5004977;28;20484;-70
2023/08/06 01:03:45;;;;;;;956.57;880.97;;;14.10;99.90;;;;;;5001315;28;20454;-70
2023/08/06 01:06:15;;;;;;;962.27;886.77;;;14.20;99.90;;;;;;5010467;28;20488;-70
2023/08/06 01:08:49;;;;;;;962.37;886.57;;;14.20;99.90;;;;;;4999095;28;20450;-71
2023/08/06 01:11:25;;;;;;;947.57;875.80;;;14.30;99.90;;;;;;5009148;28;20478;-71
2023/08/06 01:14:00;;;;;;;947.60;879.07;;;14.40;99.90;;;;;;5000358;28;20543;-71
2023/08/06 01:16:27;;;;;;;939.50;870.63;;;14.40;99.90;;;;;;5009821;28;20449;-71
2023/08/06 01:18:54;;;;;;;941.07;874.37;;;14.50;99.90;;;;;;5005237;28;20465;-71
2023/08/06 01:21:22;;;;;;;933.30;868.57;;;14.60;99.90;;;;;;5002928;28;20560;-70
2023/08/06 01:23:49;;;;;;;910.57;848.83;;;14.60;99.90;;;;;;4996683;28;20460;-70
2023/08/06 01:26:27;;;;;;;903.17;843.20;;;14.70;99.90;;;;;;5000466;28;20458;-70
2023/08/06 01:29:00;;;;;;;902.47;843.20;;;14.70;99.90;;;;;;5015559;28;20460;-70
2023/08/06 01:31:30;;;;;;;875.77;818.47;;;14.70;99.90;;;;;;5001082;28;20467;-70
2023/08/06 01:33:59;;;;;;;882.70;824.97;;;14.80;99.90;;;;;;4999734;28;20464;-70
2023/08/06 01:36:29;;;;;;;889.63;831.87;;;14.80;99.90;;;;;;5010219;28;20456;-70
2023/08/06 01:38:57;;;;;;;893.87;835.90;;;14.80;99.90;;;;;;5000151;28;20450;-70
2023/08/06 01:41:24;;;;;;;889.83;831.10;;;14.80;99.90;;;;;;4996127;28;20474;-71
2023/08/06 01:43:50;;;;;;;902.63;842.80;;;14.90;99.90;;;;;;5011786;28;20544;-70
2023/08/06 01:46:18;;;;;;;915.07;855.67;;;14.90;99.90;;;;;;5015290;28;20450;-70
2023/08/06 01:48:44;;;;;;;926.23;865.40;;;14.80;99.90;;;;;;4998666;28;20450;-71
2023/08/06 01:51:11;;;;;;;911.27;851.80;;;14.80;99.90;;;;;;5000212;28;20456;-70
2023/08/06 01:53:39;;;;;;;918.23;858.00;;;14.80;99.90;;;;;;5004551;28;20458;-70
2023/08/06 01:56:06;;;;;;;910.10;850.90;;;14.70;99.90;;;;;;4995321;28;20451;-70
2023/08/06 01:58:33;;;;;;;922.97;862.23;;;14.70;99.90;;;;;;5009491;28;20973;-71
2023/08/06 02:01:00;;;;;;;907.07;847.50;;;14.70;99.90;;;;;;4997741;28;20480;-71
2023/08/06 02:03:27;;;;;;;907.87;848.57;;;14.70;99.90;;;;;;5013215;28;20480;-71
2023/08/06 02:05:54;;;;;;;915.37;855.00;;;14.70;99.90;;;;;;5005803;28;20512;-71
2023/08/06 02:08:20;;;;;;;927.63;865.70;;;14.70;99.90;;;;;;5001544;28;20462;-71
2023/08/06 02:10:49;;;;;;;922.07;859.37;;;14.70;99.90;;;;;;4995064;28;20537;-71
2023/08/06 02:13:16;;;;;;;928.80;864.20;;;14.60;99.90;;;;;;5005696;28;20453;-71
2023/08/06 02:15:44;;;;;;;929.53;864.33;;;14.60;99.90;;;;;;5013389;28;20450;-71
2023/08/06 02:18:11;;;;;;;941.47;874.63;;;14.60;99.90;;;;;;5005487;28;20457;-71
2023/08/06 02:20:38;;;;;;;927.57;863.10;;;14.60;99.90;;;;;;4999333;28;20474;-71
2023/08/06 02:23:05;;;;;;;937.90;871.00;;;14.60;99.90;;;;;;5005132;28;20456;-71
2023/08/06 02:25:31;;;;;;;942.17;875.87;;;14.60;99.90;;;;;;5014588;28;20536;-71
2023/08/06 02:28:00;;;;;;;946.43;878.90;;;14.60;99.90;;;;;;5005401;28;20450;-71
2023/08/06 02:30:27;;;;;;;957.83;889.13;;;14.50;99.90;;;;;;4997487;28;20452;-71
2023/08/06 02:32:53;;;;;;;960.00;889.63;;;14.40;99.90;;;;;;5005465;28;20872;-70
2023/08/06 02:35:23;;;;;;;955.07;883.97;;;14.40;99.90;;;;;;4994564;28;20458;-70
2023/08/06 02:37:50;;;;;;;959.57;887.27;;;14.20;99.90;;;;;;5007874;28;20450;-71
2023/08/06 02:40:17;;;;;;;965.00;890.80;;;14.20;99.90;;;;;;4994666;28;20881;-71
2023/08/06 02:42:44;;;;;;;961.53;885.40;;;14.30;99.90;;;;;;4996506;28;20847;-71
2023/08/06 02:45:12;;;;;;;957.57;881.10;;;14.30;99.90;;;;;;4994576;28;20454;-71
2023/08/06 02:47:39;;;;;;;951.73;874.17;;;14.20;99.90;;;;;;4995467;28;20450;-71
2023/08/06 02:50:07;;;;;;;956.93;880.73;;;14.20;99.90;;;;;;5004937;28;20450;-71
2023/08/06 02:52:33;;;;;;;952.80;877.70;;;14.20;99.90;;;;;;5012101;28;20485;-71
2023/08/06 02:55:00;;;;;;;944.87;872.07;;;14.20;99.90;;;;;;4995472;28;20963;-71
2023/08/06 02:57:27;;;;;;;943.63;871.87;;;14.20;99.90;;;;;;4999026;28;20453;-71
2023/08/06 02:59:54;;;;;;;933.50;863.90;;;14.20;99.90;;;;;;5013715;28;20465;-71
2023/08/06 03:02:22;;;;;;;910.30;841.60;;;14.30;99.90;;;;;;5010866;28;20477;-71
2023/08/06 03:04:49;;;;;;;916.53;847.77;;;14.30;99.90;;;;;;5003108;28;20457;-71
2023/08/06 03:07:16;;;;;;;923.10;855.70;;;14.30;99.90;;;;;;5010554;28;20980;-71
2023/08/06 03:09:43;;;;;;;920.47;853.37;;;14.30;99.90;;;;;;4994512;28;20454;-71
2023/08/06 03:12:10;;;;;;;908.60;842.43;;;14.40;99.90;;;;;;5000480;28;20453;-71
2023/08/06 03:14:37;;;;;;;904.30;839.27;;;14.40;99.90;;;;;;5002829;28;20450;-71
2023/08/06 03:17:04;;;;;;;906.40;842.30;;;14.40;99.90;;;;;;4994246;28;20509;-71
2023/08/06 03:19:32;;;;;;;913.37;849.60;;;14.40;99.90;;;;;;5011609;28;20461;-71
2023/08/06 03:21:59;;;;;;;917.87;853.40;;;14.50;99.90;;;;;;5013356;28;20503;-71
2023/08/06 03:24:26;;;;;;;908.70;845.80;;;14.50;99.90;;;;;;5005673;28;20450;-71
2023/08/06 03:26:53;;;;;;;902.87;842.07;;;14.50;99.90;;;;;;5006867;28;20552;-71
2023/08/06 03:29:21;;;;;;;908.20;847.07;;;14.50;99.90;;;;;;4994141;28;20454;-71
2023/08/06 03:31:48;;;;;;;901.83;841.23;;;14.50;99.90;;;;;;5011884;28;20536;-71
2023/08/06 03:34:14;;;;;;;915.70;853.40;;;14.50;99.90;;;;;;5002756;28;20456;-71
2023/08/06 03:36:42;;;;;;;920.13;857.37;;;14.50;99.90;;;;;;5010912;28;20810;-71
2023/08/06 03:39:09;;;;;;;923.20;859.20;;;14.50;99.90;;;;;;5009876;28;20459;-71
2023/08/06 03:41:36;;;;;;;916.07;851.60;;;14.50;99.90;;;;;;5006876;28;20552;-71
2023/08/06 03:44:03;;;;;;;919.77;854.07;;;14.50;99.90;;;;;;5012807;28;20457;-71
2023/08/06 03:46:32;;;;;;;917.10;851.70;;;14.50;99.90;;;;;;5002872;28;20454;-71
2023/08/06 03:48:59;;;;;;;924.70;858.57;;;14.50;99.90;;;;;;4993227;28;20490;-71
2023/08/06 03:51:26;;;;;;;928.00;861.37;;;14.40;99.90;;;;;;4993287;28;20456;-70
2023/08/06 03:53:54;;;;;;;925.97;858.37;;;14.40;99.90;;;;;;4993346;28;20587;-71
2023/08/06 03:56:20;;;;;;;941.67;873.47;;;14.40;99.90;;;;;;4993127;28;20830;-70
2023/08/06 03:58:47;;;;;;;942.07;872.93;;;14.40;99.90;;;;;;4993307;28;20454;-70
2023/08/06 04:01:14;;;;;;;943.90;875.20;;;14.50;99.90;;;;;;4992853;28;20478;-72
2023/08/06 04:03:41;;;;;;;947.40;878.20;;;14.50;99.90;;;;;;4993188;28;20545;-70
2023/08/06 04:06:08;;;;;;;947.47;877.10;;;14.50;99.90;;;;;;4993087;28;20539;-70
2023/08/06 04:08:35;;;;;;;962.17;888.67;;;14.50;99.90;;;;;;4993056;28;20509;-70
2023/08/06 04:11:03;;;;;;;956.60;880.70;;;14.50;99.90;;;;;;4992739;28;20486;-70
2023/08/06 04:13:30;;;;;;;971.97;890.07;;;14.50;99.90;;;;;;4993091;28;20461;-72
2023/08/06 04:16:02;;;;;;;948.77;869.27;;;14.50;99.90;;;;;;4993090;28;20504;-69
2023/08/06 04:18:29;;;;;;;955.20;874.30;;;14.50;99.90;;;;;;4992668;28;20557;-70
2023/08/06 04:20:57;;;;;;;947.67;867.07;;;14.50;99.90;;;;;;4993432;28;20612;-69
2023/08/06 04:23:24;;;;;;;947.93;865.90;;;14.50;99.90;;;;;;4992774;28;20457;-69
2023/08/06 04:25:50;;;;;;;949.57;867.47;;;14.40;99.90;;;;;;5001542;28;20457;-66
2023/08/06 04:28:19;;;;;;;945.97;862.47;;;14.40;99.90;;;;;;5012466;28;20468;-68
2023/08/06 04:30:45;;;;;;;945.63;861.87;;;14.40;99.90;;;;;;5012353;28;20500;-69
2023/08/06 04:33:12;;;;;;;952.13;867.60;;;14.50;99.90;;;;;;5012522;28;20866;-68
2023/08/06 04:35:39;;;;;;;942.70;858.33;;;14.50;99.90;;;;;;5012354;28;20536;-68
2023/08/06 04:38:06;;;;;;;943.97;858.40;;;14.50;99.90;;;;;;5012207;28;20457;-68
2023/08/06 04:40:34;;;;;;;938.50;853.47;;;14.50;99.90;;;;;;5012436;28;20460;-68
2023/08/06 04:43:01;;;;;;;936.87;852.00;;;14.50;99.90;;;;;;5012114;28;20565;-68
2023/08/06 04:45:29;;;;;;;940.67;856.00;;;14.60;99.90;;;;;;5012267;28;20453;-68
2023/08/06 04:47:56;;;;;;;945.90;862.00;;;14.60;99.90;;;;;;5012398;28;20507;-68
2023/08/06 04:50:23;;;;;;;941.73;858.80;;;14.60;99.90;;;;;;5012150;28;20457;-69
2023/08/06 04:52:50;;;;;;;937.47;855.70;;;14.60;99.90;;;;;;5010032;28;21082;-68
2023/08/06 04:55:17;;;;;;;934.27;852.43;;;14.70;99.90;;;;;;4992736;28;20448;-69
2023/08/06 04:57:44;;;;;;;936.07;854.83;;;14.70;99.90;;;;;;4992681;28;20450;-69
2023/08/06 05:00:11;;;;;;;929.10;846.87;;;14.80;99.90;;;;;;4992471;28;20816;-69
2023/08/06 05:02:39;;;;;;;938.27;858.50;;;14.90;99.90;;;;;;4992187;28;20831;-69
2023/08/06 05:05:06;;;;;;;938.20;858.50;;;15.00;99.90;;;;;;5004874;28;20832;-69
2023/08/06 05:07:33;;;;;;;936.97;858.13;;;15.00;99.90;;;;;;5012408;28;20818;-69
2023/08/06 05:10:00;;;;;;;934.57;855.67;;;15.00;99.90;;;;;;5012017;28;20453;-69
2023/08/06 05:12:27;;;;;;;931.47;853.10;;;15.00;99.90;;;;;;5011605;28;20453;-69
2023/08/06 05:14:54;;;;;;;931.33;852.87;;;15.00;99.90;;;;;;5010295;28;20450;-69
2023/08/06 05:17:22;;;;;;;935.37;857.73;;;15.10;99.90;;;;;;5007720;28;20451;-69
2023/08/06 05:19:50;;;;;;;924.90;847.30;;;15.10;99.90;;;;;;4992108;28;20446;-69
2023/08/06 05:22:17;;;;;;;923.10;846.93;;;15.20;99.90;;;;;;4994525;28;20478;-69
2023/08/06 05:24:44;;;;;;;927.97;852.47;;;15.30;99.90;;;;;;4992431;28;20482;-69
2023/08/06 05:27:11;;;;;;;935.87;862.00;;;15.30;99.90;;;;;;4995899;28;20548;-69
2023/08/06 05:29:38;;;;;;;931.83;858.73;;;15.40;99.90;;;;;;5001897;28;20520;-70
2023/08/06 05:32:05;;;;;;;931.43;858.70;;;15.40;99.90;;;;;;5000001;28;20454;-70
2023/08/06 05:34:32;;;;;;;929.57;858.07;;;15.50;99.90;;;;;;5009826;28;20792;-69
2023/08/06 05:37:00;;;;;;;928.07;856.57;;;15.50;99.90;;;;;;4995692;28;20454;-69
2023/08/06 05:39:27;;;;;;;922.57;851.10;;;15.60;99.90;;;;;;4995786;28;20460;-68
2023/08/06 05:41:55;;;;;;;917.90;853.07;;;15.70;99.90;;;;;;4995559;28;21008;-68
2023/08/06 05:44:21;;;;;;;931.17;863.70;;;15.70;99.90;;;;;;4995634;28;20457;-67
2023/08/06 05:46:49;;;;;;;928.73;860.17;;;15.70;99.90;;;;;;4997549;28;20476;-67
2023/08/06 05:49:16;;;;;;;923.33;854.93;;;15.80;99.90;;;;;;5000263;28;20815;-67
2023/08/06 05:51:43;;;;;;;916.63;849.10;;;15.90;99.90;;;;;;5004411;28;20449;-68
2023/08/06 05:54:11;;;;;;;914.90;847.40;;;16.00;99.90;;;;;;5002198;28;20450;-67
2023/08/06 05:56:38;;;;;;;898.23;834.57;;;16.00;99.90;;;;;;4995357;28;20505;-68
2023/08/06 05:59:05;;;;;;;916.37;850.77;;;16.00;99.90;;;;;;4995139;28;20454;-68
2023/08/06 06:01:32;;;;;;;909.50;846.10;;;16.10;99.90;;;;;;4994935;28;20454;-68
2023/08/06 06:03:59;;;;;;;894.63;832.70;;;16.10;99.90;;;;;;5011411;28;20449;-68
2023/08/06 06:06:25;;;;;;;897.53;836.70;;;16.20;99.90;;;;;;5001023;28;20470;-68
2023/08/06 06:08:52;;;;;;;919.33;852.30;;;16.20;99.90;;;;;;5012776;28;20914;-68
2023/08/06 06:11:22;;;;;;;903.67;837.87;;;16.30;99.90;;;;;;5010448;28;20454;-68
2023/08/06 06:13:49;;;;;;;894.37;828.97;;;16.40;99.90;;;;;;5008363;28;20450;-68
2023/08/06 06:16:16;;;;;;;894.43;829.77;;;16.50;99.90;;;;;;5008901;28;20476;-68
2023/08/06 06:18:42;;;;;;;887.60;824.20;;;16.60;99.90;;;;;;4995901;28;20463;-68
2023/08/06 06:21:10;;;;;;;880.13;816.87;;;16.80;99.90;;;;;;4994911;28;20454;-68
2023/08/06 06:23:37;;;;;;;857.97;797.87;;;16.90;99.90;;;;;;4994912;28;20478;-68
2023/08/06 06:26:04;;;;;;;841.23;781.37;;;17.00;99.90;;;;;;4994850;28;20493;-68
2023/08/06 06:28:32;;;;;;;806.87;755.97;;;17.40;99.90;;;;;;4994739;28;20457;-68
2023/08/06 06:31:01;;;;;;;637.47;608.67;;;17.60;99.90;;;;;;4994645;28;20457;-68
2023/08/06 06:33:28;;;;;;;605.67;580.13;;;17.40;99.90;;;;;;4994721;28;20533;-68
2023/08/06 06:35:55;;;;;;;587.37;563.27;;;17.40;99.90;;;;;;4994960;28;20634;-68
2023/08/06 06:38:22;;;;;;;644.33;617.00;;;17.30;99.90;;;;;;4994724;28;20818;-68
2023/08/06 06:40:55;;;;;;;686.70;656.00;;;17.30;99.90;;;;;;4994325;28;20489;-68
2023/08/06 06:43:22;;;;;;;663.63;634.53;;;17.30;99.90;;;;;;4993488;28;20496;-69
2023/08/06 06:45:53;;;;;;;665.53;635.77;;;17.30;99.90;;;;;;5006385;28;20549;-68
2023/08/06 06:48:20;;;;;;;634.93;607.37;;;17.30;99.90;;;;;;5007497;28;20489;-70
2023/08/06 06:50:48;;;;;;;657.37;627.87;;;17.30;99.90;;;;;;5006625;28;20453;-68
2023/08/06 06:53:15;;;;;;;479.67;461.23;;;17.30;99.90;;;;;;5010815;28;20492;-68
2023/08/06 06:55:42;;;;;;;527.47;506.67;;;17.40;99.90;;;;;;5008958;28;20464;-68
2023/08/06 06:58:09;;;;;;;541.27;519.87;;;17.50;99.90;;;;;;4997133;28;20477;-68
2023/08/06 07:00:37;;;;;;;628.17;601.57;;;17.60;99.90;;;;;;5002399;28;20480;-69
2023/08/06 07:03:05;;;;;;;369.67;357.37;;;17.70;99.90;;;;;;5013553;28;20531;-68
2023/08/06 07:05:32;;;;;;;375.50;363.20;;;17.60;99.90;;;;;;5011356;28;20477;-69
2023/08/06 07:07:59;;;;;;;281.63;272.70;;;17.70;99.90;;;;;;5002551;28;20454;-68
2023/08/06 07:10:26;;;;;;;491.70;473.43;;;17.90;99.90;;;;;;5008705;28;20465;-69
2023/08/06 07:12:54;;;;;;;585.03;561.00;;;18.00;99.90;;;;;;4993420;28;21011;-68
2023/08/06 07:15:21;;;;;;;510.10;490.97;;;18.20;99.90;;;;;;4999330;28;20887;-69
2023/08/06 07:17:47;;;;;;;193.37;187.07;;;18.20;99.90;;;;;;5012972;28;20472;-68
2023/08/06 07:20:16;;;;;;;332.30;321.80;;;18.20;99.90;;;;;;5010608;28;20477;-69
2023/08/06 07:22:42;;;;;;;237.57;230.13;;;18.20;99.90;;;;;;5007582;28;20485;-68
2023/08/06 07:25:09;;;;;;;174.23;168.50;;;18.20;99.90;;;;;;4997229;28;20446;-68
2023/08/06 07:27:36;;;;;;;126.47;122.13;;;18.20;99.90;;;;;;4996738;28;20454;-68
2023/08/06 07:30:05;;;;;;;213.30;206.47;;;18.30;99.90;;;;;;4995537;28;20930;-69
2023/08/06 07:32:32;;;;;;;276.37;267.73;;;18.40;99.90;;;;;;4994043;28;20446;-68
2023/08/06 07:35:00;;;;;;;254.07;246.27;;;18.10;99.90;;;;;;5002907;28;20449;-68
2023/08/06 07:37:29;;;;;;;212.30;205.57;;;18.10;99.90;;;;;;4997717;28;20462;-69
2023/08/06 07:39:56;;;;;;;197.90;191.60;;;18.00;99.90;;;;;;5002327;28;20466;-68
2023/08/06 07:42:23;;;;;;;146.70;141.90;;;17.80;99.90;;;;;;5003302;28;20981;-68
2023/08/06 07:44:52;;;;;;;275.70;267.20;;;17.70;99.90;;;;;;5005112;28;20454;-68
2023/08/06 07:47:19;;;;;;;272.23;263.63;;;17.70;99.90;;;;;;4998342;28;20454;-68
2023/08/06 07:49:46;;;;;;;364.53;352.47;;;17.60;99.90;;;;;;5000655;28;20476;-69
2023/08/06 07:52:13;;;;;;;305.17;295.43;;;17.40;99.90;;;;;;5002411;28;20561;-68
2023/08/06 07:54:41;;;;;;;318.57;308.60;;;17.40;99.90;;;;;;5005808;28;20460;-69
2023/08/06 07:57:08;;;;;;;337.73;326.97;;;17.20;99.90;;;;;;5012007;28;20460;-68
2023/08/06 07:59:35;;;;;;;314.43;304.63;;;17.10;99.90;;;;;;5009738;28;20454;-68
2023/08/06 08:02:02;;;;;;;267.63;259.30;;;17.00;99.90;;;;;;5007350;28;20533;-68
2023/08/06 08:04:29;;;;;;;407.00;393.23;;;16.90;99.90;;;;;;4999386;28;20477;-68
2023/08/06 08:06:56;;;;;;;316.97;306.53;;;16.90;99.90;;;;;;4992430;28;20460;-68
2023/08/06 08:09:22;;;;;;;352.53;340.73;;;16.90;99.90;;;;;;5004156;28;20449;-68
2023/08/06 08:11:52;;;;;;;506.40;487.27;;;17.00;99.90;;;;;;4994002;28;20464;-68
2023/08/06 08:14:19;;;;;;;229.97;222.60;;;17.20;99.90;;;;;;5005596;28;20445;-68
2023/08/06 08:16:46;;;;;;;247.33;239.33;;;17.40;99.90;;;;;;5003355;28;20545;-68
2023/08/06 08:19:13;;;;;;;228.63;221.20;;;17.50;99.90;;;;;;5010211;28;20549;-68
2023/08/06 08:21:39;;;;;;;55.63;53.43;;;17.80;99.90;;;;;;5005872;28;20457;-68
2023/08/06 08:24:06;;;;;;;191.20;185.00;;;17.80;99.90;;;;;;4993393;28;20490;-68
2023/08/06 08:26:33;;;;;;;153.23;147.83;;;17.90;99.90;;;;;;5009536;28;20454;-68
2023/08/06 08:29:01;;;;;;;144.20;139.30;;;18.10;99.90;;;;;;4998410;28;20545;-69
2023/08/06 08:31:29;;;;;;;26.07;24.73;;;18.50;99.90;;;;;;5011035;28;20471;-69
2023/08/06 08:33:56;;;;;;;14.20;13.40;;;18.40;99.90;;;;;;5009934;28;20445;-70
2023/08/06 08:36:23;;;;;;;9.13;8.43;;;18.20;99.90;;;;;;4991530;28;20454;-70
2023/08/06 08:38:53;;;;;;;6.60;5.40;;;18.20;99.90;;;;;;5004031;28;20465;-70
2023/08/06 08:41:21;;;;;;;12.43;11.43;;;18.30;99.90;;;;;;4994126;28;20464;-70
2023/08/06 08:43:51;;;;;;;9.60;8.90;;;18.40;99.90;;;;;;4992009;28;20679;-70
2023/08/06 08:46:20;;;;;;;6.70;4.50;;;18.60;99.90;;;;;;4996595;28;20500;-70
2023/08/06 08:48:47;;;;;;;5.43;4.00;;;18.70;99.90;;;;;;4992537;28;20969;-71
2023/08/06 08:51:14;;;;;;;5.80;3.20;;;18.80;99.90;;;;;;4992652;28;20817;-70
2023/08/06 08:53:42;;;;;;;6.60;2.70;;;19.00;99.90;;;;;;4992741;28;20548;-70
2023/08/06 08:56:09;;;;;;;4.33;2.13;;;19.30;99.90;;;;;;4992601;28;20829;-70
2023/08/06 08:58:36;;;;;;;6.03;2.00;;;19.60;99.90;;;;;;4992426;28;20872;-71
2023/08/06 09:01:04;;;;;;;4.53;2.17;;;19.60;99.90;;;;;;4992506;28;20874;-70
2023/08/06 09:03:33;;;;;;;4.83;2.23;;;19.70;99.30;;;;;;4992664;28;20576;-70
2023/08/06 09:06:03;;;;;;;5.80;2.93;;;19.80;99.30;;;;;;4993238;28;20454;-71
2023/08/06 09:08:35;;;;;;;5.97;3.50;;;19.70;99.90;;;;;;4996523;28;20488;-70
2023/08/06 09:11:03;;;;;;;5.47;2.97;;;19.30;99.90;;;;;;4995962;28;20465;-71
2023/08/06 09:13:30;;;;;;;7.93;3.23;;;19.20;99.90;;;;;;4996251;28;20493;-70
2023/08/06 09:15:57;;;;;;;6.70;4.00;;;19.10;99.90;;;;;;4996223;28;21034;-70
2023/08/06 09:18:28;;;;;;;6.37;4.30;;;18.90;99.90;;;;;;4995988;28;20462;-71
2023/08/06 09:20:57;;;;;;;5.93;4.13;;;18.90;99.90;;;;;;4996148;28;20549;-71
2023/08/06 09:23:30;;;;;;;6.63;3.87;;;18.90;99.90;;;;;;4995968;28;20888;-71
2023/08/06 09:25:57;;;;;;;10.90;4.20;;;19.00;99.90;;;;;;4996000;28;20450;-71
2023/08/06 09:28:24;;;;;;;7.30;5.10;;;19.00;99.90;;;;;;4995895;28;20464;-71
2023/08/06 09:30:54;;;;;;;4.77;1.53;;;19.40;99.90;;;;;;4995926;28;20541;-69
2023/08/06 09:33:24;;;;;;;5.33;1.50;;;18.40;99.90;;;;;;4995900;28;20926;-69
2023/08/06 09:35:50;;;;;;;4.80;3.50;;;17.60;99.90;;;;;;4995896;28;20457;-67
2023/08/06 09:38:19;;;;;;;10.87;9.37;;;16.20;99.90;;;;;;4995947;28;20465;-66
2023/08/06 09:40:45;;;;;;;36.67;34.87;;;15.80;99.90;;;;;;4995593;28;20465;-66
2023/08/06 09:43:14;;;;;;;341.10;331.30;;;15.50;99.90;;;;;;4995797;28;20478;-66
2023/08/06 09:45:41;;;;;;;447.43;434.30;;;15.70;99.90;;;;;;4995741;28;20847;-67
2023/08/06 09:48:09;;;;;;;521.80;505.13;;;15.60;99.90;;;;;;4995651;28;20505;-68
2023/08/06 09:50:38;;;;;;;631.03;607.40;;;15.30;99.90;;;;;;4995306;28;20460;-66
2023/08/06 09:53:06;;;;;;;710.90;680.40;;;15.40;99.90;;;;;;4995486;28;20462;-67
2023/08/06 09:55:35;;;;;;;738.97;704.17;;;15.30;99.90;;;;;;4995637;28;20456;-67
2023/08/06 09:58:02;;;;;;;745.93;710.03;;;15.30;99.90;;;;;;4995607;28;20492;-66
2023/08/06 10:00:31;;;;;;;753.33;713.27;;;15.40;99.90;;;;;;4995302;28;20959;-66
2023/08/06 10:03:01;;;;;;;762.17;721.97;;;15.40;99.90;;;;;;4994946;28;20481;-67
2023/08/06 10:05:29;;;;;;;762.50;720.00;;;15.10;99.90;;;;;;4995562;28;20454;-67
2023/08/06 10:07:58;;;;;;;735.17;695.37;;;15.40;99.90;;;;;;4995416;28;20537;-67
2023/08/06 10:10:26;;;;;;;728.30;687.50;;;15.20;99.90;;;;;;4995232;28;20541;-66
2023/08/06 10:12:59;;;;;;;646.70;618.30;;;15.00;99.90;;;;;;4995172;28;20537;-67
2023/08/06 10:15:28;;;;;;;616.40;592.13;;;14.90;99.90;;;;;;4995189;28;20472;-67
2023/08/06 10:17:58;;;;;;;572.10;551.40;;;15.10;99.90;;;;;;4994906;28;20463;-66
2023/08/06 10:20:25;;;;;;;574.57;554.13;;;14.70;99.90;;;;;;4994958;28;20461;-66
2023/08/06 10:23:03;;;;;;;555.70;536.60;;;14.80;99.90;;;;;;4994724;28;20458;-67
2023/08/06 10:25:33;;;;;;;571.03;551.20;;;14.80;99.90;;;;;;4994962;28;20862;-67
2023/08/06 10:28:02;;;;;;;561.83;543.03;;;14.70;99.90;;;;;;4994872;28;20458;-67
2023/08/06 10:30:31;;;;;;;380.77;368.83;;;14.80;99.90;;;;;;4995002;28;20450;-68
2023/08/06 10:33:00;;;;;;;358.47;347.23;;;14.80;99.90;;;;;;4994854;28;20454;-66
2023/08/06 10:35:43;;;;;;;435.17;421.50;;;14.70;99.90;;;;;;4994896;28;20481;-68
2023/08/06 10:38:11;;;;;;;451.50;437.43;;;14.60;99.90;;;;;;4994746;28;20450;-67
2023/08/06 10:40:40;;;;;;;523.77;506.87;;;14.50;99.90;;;;;;4994384;28;20465;-67
2023/08/06 10:43:25;;;;;;;728.17;696.00;;;14.50;99.90;;;;;;4994712;28;20859;-67
2023/08/06 10:45:52;;;;;;;807.10;767.40;;;14.70;99.90;;;;;;4994737;28;20464;-66
2023/08/06 10:48:30;;;;;;;814.63;774.30;;;14.60;99.90;;;;;;4994557;28;20454;-67
2023/08/06 10:50:57;;;;;;;819.83;778.43;;;14.70;99.90;;;;;;4994175;28;20508;-67
2023/08/06 10:53:24;;;;;;;819.27;778.07;;;14.60;99.90;;;;;;4994662;28;20538;-66
2023/08/06 10:55:51;;;;;;;829.40;787.80;;;14.60;99.90;;;;;;4994338;28;21010;-67
2023/08/06 10:58:19;;;;;;;827.93;786.33;;;14.60;99.90;;;;;;4994436;28;20454;-67
2023/08/06 11:00:47;;;;;;;831.87;790.27;;;14.80;99.90;;;;;;4994145;28;20455;-66
2023/08/06 11:03:13;;;;;;;829.10;787.00;;;14.60;99.90;;;;;;4994391;28;20482;-66
2023/08/06 11:05:40;;;;;;;840.30;796.47;;;14.80;99.90;;;;;;4994159;28;20501;-66
2023/08/06 11:08:07;;;;;;;835.37;792.37;;;14.80;99.90;;;;;;4994375;28;20446;-66
2023/08/06 11:10:35;;;;;;;841.67;797.00;;;14.50;99.90;;;;;;4994205;28;20454;-65
2023/08/06 11:13:02;;;;;;;834.17;789.77;;;14.80;99.90;;;;;;4994170;28;20461;-65
2023/08/06 11:15:31;;;;;;;833.30;789.10;;;14.90;99.90;;;;;;4993999;28;20480;-65
2023/08/06 11:17:59;;;;;;;846.53;801.23;;;14.70;99.90;;;;;;4993705;28;20548;-66
2023/08/06 11:20:26;;;;;;;824.67;781.53;;;14.80;99.90;;;;;;4993812;28;20537;-65
2023/08/06 11:22:53;;;;;;;835.83;791.00;;;15.00;99.90;;;;;;4993631;28;20947;-66
2023/08/06 11:25:22;;;;;;;848.70;802.23;;;14.90;99.90;;;;;;4993899;28;20841;-65
2023/08/06 11:27:49;;;;;;;857.50;809.70;;;14.80;99.90;;;;;;4993871;28;20462;-66
2023/08/06 11:30:16;;;;;;;862.93;815.07;;;15.10;99.90;;;;;;4993006;28;20476;-66
2023/08/06 11:32:49;;;;;;;876.53;827.50;;;15.40;99.90;;;;;;4993357;28;20454;-66
2023/08/06 11:35:16;;;;;;;884.40;833.50;;;15.40;99.90;;;;;;4993818;28;20537;-68
2023/08/06 11:37:45;;;;;;;891.27;839.27;;;15.70;99.90;;;;;;4993503;28;20967;-68
2023/08/06 11:40:15;;;;;;;922.25;865.25;;;15.70;99.90;;;;;;4992301;28;20952;-68
2023/08/06 11:42:43;;;;;;;919.93;863.90;;;15.50;99.90;;;;;;5003901;28;20533;-69
2023/08/06 11:45:10;;;;;;;920.87;864.87;;;15.60;99.90;;;;;;5003711;28;20982;-69
2023/08/06 11:47:40;;;;;;;909.20;854.20;;;15.60;99.90;;;;;;5006500;28;20449;-70
2023/08/06 11:50:09;;;;;;;902.17;849.07;;;15.80;99.90;;;;;;5011404;28;20453;-69
2023/08/06 11:52:42;;;;;;;891.77;839.63;;;16.00;99.90;;;;;;5012824;28;20452;-69
2023/08/06 11:55:11;;;;;;;914.07;860.60;;;16.10;99.90;;;;;;5003525;28;20454;-69
2023/08/06 11:57:39;;;;;;;900.43;846.73;;;16.00;99.90;;;;;;4993299;28;20502;-69
2023/08/06 12:00:08;;;;;;;910.00;856.93;;;16.40;99.90;;;;;;5009654;28;20454;-69
2023/08/06 12:02:37;;;;;;;911.87;858.67;;;16.40;99.90;;;;;;5012754;28;20485;-70
2023/08/06 12:05:06;;;;;;;901.70;848.70;;;16.30;99.90;;;;;;5012743;28;20569;-70
2023/08/06 12:07:39;;;;;;;907.77;855.47;;;16.30;99.90;;;;;;5012765;28;20592;-69
2023/08/06 12:10:07;;;;;;;904.23;852.07;;;16.30;99.90;;;;;;5012532;28;20537;-70
2023/08/06 12:12:34;;;;;;;919.90;867.30;;;16.30;99.90;;;;;;5012735;28;20456;-69